ePrivacy and GPDR Cookie Consent by Cookie Consent
EmailTwitter


Surface observations / United Kingdom / EGLC

Regions: Quebec | Canada | USA | Europe | France | UK | Elsewhere
Station
Display
Info & Location for EGLC | Help decoding METAR

Weather Conditions observed on 2022/10/02 at 02:50 UTC at LONDON CITY AIRP, UK (EGLC)

Temperature: 14.0 Celsius.

Dewpoint: 12.0 Celsius.

Relative Humidity: 88%

Winds: Southwest at 17 km/h or 9 knots.

Mean Sea level Pressure: 101.60 kilopascals.

Horizontal visibility: 6.21 statute miles or 9.94 kilometers.

Coded METAR:

EGLC 020250Z AUTO 24009KT 9999 NCD 14/12 Q1016=